Italic G — IBYH — position and weather

sailwx.info

Track history (hours):
 
Tides and Currents Weather Stations Pressure Air Temp Water Temp Dewpoint Dewpoint Depression Visibility Wind Speed Wind Dir Waves Ship Positions

Italic G

Last reported at 2017-Apr-23 12:24 UTC. Time now 2017-Apr-26 08:03 UTC.
Position N 37°28' E 016°10'.

Length 229 m; draft 14.9 m.

Type: Cargo ship. MMSI: 247282300.

Date/timePositionNaut miles runAvg speedWind from/ knotsBaromVisibWave heightAir tempDewpointWater temp
2017-Apr-23 12:24N 37°28' E 016°10'94 9.4
2017-Apr-23 02:27N 36°39' E 014°30'510.6
2017-Apr-23 02:00N 36°41' E 014°24'510.6
2017-Apr-23 01:30N 36°42' E 014°18'510.5
2017-Apr-23 01:00N 36°44' E 014°12'510.4
2017-Apr-23 00:30N 36°45' E 014°05'510.6
2017-Apr-23 00:01N 36°46' E 013°59'510.8
2017-Apr-22 23:30N 36°48' E 013°53'510.8
2017-Apr-22 23:00N 36°50' E 013°46'  
2017-Apr-16 20:45N 37°47' W 014°05'2 9.9
2017-Apr-16 20:30N 37°48' W 014°07'510.0
2017-Apr-16 20:00N 37°50' W 014°13'1710.3
2017-Apr-16 18:20N 37°56' W 014°33'310.5
2017-Apr-16 18:00N 37°58' W 014°37'510.3
2017-Apr-16 17:30N 37°60' W 014°43'510.4
2017-Apr-16 17:00N 38°02' W 014°49'510.5
2017-Apr-16 16:30N 38°04' W 014°55'810.4
2017-Apr-16 15:42N 38°07' W 015°05'210.2
2017-Apr-16 15:30N 38°08' W 015°08'  
Track history (hours):
 
Tides and Currents Weather Stations Pressure Air Temp Water Temp Dewpoint Dewpoint Depression Visibility Wind Speed Wind Dir Waves Ship Positions

Italic G

Last reported at 2017-Apr-23 12:24 UTC. Time now 2017-Apr-26 08:03 UTC.
Position N 37°28' E 016°10'.

Length 229 m; draft 14.9 m.

Type: Cargo ship. MMSI: 247282300.

Date/timePositionNaut miles runAvg speedWind from/ knotsBaromVisibWave heightAir tempDewpointWater temp
2017-Apr-23 12:24N 37°28' E 016°10'94 9.4
2017-Apr-23 02:27N 36°39' E 014°30'510.6
2017-Apr-23 02:00N 36°41' E 014°24'510.6
2017-Apr-23 01:30N 36°42' E 014°18'510.5
2017-Apr-23 01:00N 36°44' E 014°12'510.4
2017-Apr-23 00:30N 36°45' E 014°05'510.6
2017-Apr-23 00:01N 36°46' E 013°59'510.8
2017-Apr-22 23:30N 36°48' E 013°53'510.8
2017-Apr-22 23:00N 36°50' E 013°46'  
2017-Apr-16 20:45N 37°47' W 014°05'2 9.9
2017-Apr-16 20:30N 37°48' W 014°07'510.0
2017-Apr-16 20:00N 37°50' W 014°13'1710.3
2017-Apr-16 18:20N 37°56' W 014°33'310.5
2017-Apr-16 18:00N 37°58' W 014°37'510.3
2017-Apr-16 17:30N 37°60' W 014°43'510.4
2017-Apr-16 17:00N 38°02' W 014°49'510.5
2017-Apr-16 16:30N 38°04' W 014°55'810.4
2017-Apr-16 15:42N 38°07' W 015°05'210.2
2017-Apr-16 15:30N 38°08' W 015°08'  

Dump ship's entire track history